Lake, Nebraska
Current Conditions -  °F | °C
As of 3:15 AM on Friday 19 Dec 2014 (Local Time) from KHDE Reporting Station
Haze Haze  
Wind Chill: 24°   Ceiling: 600
Heat Index: 30°   Visibility: 5mi
Dew Point: 28°   Wind: 6mph
Humidity: 93%   Direction: 230°SW
Pressure: 30.14"   Gusts: NA
Location:  40.3942°N, 99.1223°W
Report Text: KHDE 190915Z AUTO 23005KT 5SM BR OVC006 M01/M02 A3014 RMK AO2 T10131023
Loading
Personal Weather Stations






























Interactive Weather Map New forecast layout! Learn more

10-Day Weather Forecast

Advertisements
Track Severe Weather on mobile